Ana Sayfa
METAR-TAF:

METAR-TAF

Havaalanları :

St. Charles County Airport (Smart Field)

Saint Charles, Missouri, Amerika Birleşik Devletleri

Enlem: 38-55-50N, Boylam: 090-25-57W, yükseklik: 133 m

Güncel hava durumu gözlemi

Rapor saat 11:54 UTC de 17 dakika önce yapıldı.
Rüzgar doğu/kuzeydoğudan 4 kt
Sıcaklık 18°C
Nem 88%
Basınç 1013 hPa
Görüş mesafesi: 16.1 km
6000 ft yükseklikte parçalı çok bulutlu
8000 ft yükseklikte parçalı çok bulutlu

METAR: KSET 231154Z AUTO 07004KT 10SM BKN060 BKN080 18/16 A2991 RMK AO2 SLP123 70007 T01830161 10183 20150 50000

Saat: 07:11 (12:11 UTC)


TAF: eksik

4.000'den fazla havaalanı için hava durumu gözlemleri ve tahminleri (METAR ve TAF raporları).

Kullanılabilir istasyonlar harita üzerinde sarı ve kırmızı noktalarla gösterilir.

İstasyonun adını görmek için fareyi noktanın üzerinde gezdirin.

Sonrasında hava gözlem ve tahminlerini görmek için tıklayın.

Haritayı değiştirmek için: yaklaştırmak için siyah artı işaretli yeşil düğmeye ve uzaklaştırmak için de eksi işaretli düğmeye hızla tıklayın; bitişik haritalar için yeşil okları kullanın.


METAR-TAF: